Time;durP1;ratioP1;P1;durP2;ratioP2;P2;SDS_P1;SDS_P2;PMS_P1;PMS_P2;Temp;Humidity;BMP_temperature;BMP_pressure;BME280_temperature;BME280_humidity;BME280_pressure;Samples;Min_cycle;Max_cycle;Signal;HPM_P1;HPM_P2
2021/08/18 00:00:45;;;;;;;6.87;6.17;;;16.50;99.90;;;;;;5004675;28;20494;-83
2021/08/18 00:03:14;;;;;;;6.60;6.00;;;16.50;99.90;;;;;;5011224;28;20521;-86
2021/08/18 00:05:42;;;;;;;6.03;5.53;;;16.50;99.90;;;;;;5009307;28;20454;-83
2021/08/18 00:08:10;;;;;;;5.67;5.17;;;16.50;99.90;;;;;;5007090;28;20450;-85
2021/08/18 00:10:40;;;;;;;7.73;6.40;;;16.50;99.90;;;;;;5012704;28;20483;-84
2021/08/18 00:13:09;;;;;;;5.97;5.47;;;16.50;99.90;;;;;;5014128;28;20450;-84
2021/08/18 00:15:38;;;;;;;6.00;5.20;;;16.50;99.90;;;;;;5014908;28;20461;-84
2021/08/18 00:18:05;;;;;;;7.80;5.83;;;16.50;99.90;;;;;;5011696;28;20454;-83
2021/08/18 00:20:33;;;;;;;7.10;6.00;;;16.50;99.90;;;;;;5018918;28;20453;-84
2021/08/18 00:22:59;;;;;;;8.07;7.10;;;16.50;99.90;;;;;;5016633;28;20454;-83
2021/08/18 00:25:26;;;;;;;8.80;7.90;;;16.50;99.90;;;;;;5026151;28;20465;-85
2021/08/18 00:27:54;;;;;;;7.80;7.10;;;16.50;99.90;;;;;;5027712;28;20476;-84
2021/08/18 00:30:21;;;;;;;7.47;6.77;;;16.50;99.90;;;;;;5021084;28;20497;-84
2021/08/18 00:32:48;;;;;;;9.00;6.93;;;16.50;99.90;;;;;;5019148;28;20443;-83
2021/08/18 00:35:15;;;;;;;8.00;7.20;;;16.50;99.90;;;;;;5017758;28;20493;-83
2021/08/18 00:37:42;;;;;;;7.30;6.27;;;16.50;99.90;;;;;;5025081;28;20485;-81
2021/08/18 00:40:10;;;;;;;9.07;7.40;;;16.50;99.90;;;;;;5012301;28;21020;-86
2021/08/18 00:42:37;;;;;;;7.90;7.20;;;16.50;99.90;;;;;;5009251;28;20455;-83
2021/08/18 00:45:05;;;;;;;8.73;7.83;;;16.50;99.90;;;;;;5018155;28;20489;-86
2021/08/18 00:47:45;;;;;;;8.73;7.73;;;16.40;99.90;;;;;;5020140;28;20459;-82
2021/08/18 00:50:17;;;;;;;9.33;7.37;;;16.50;99.90;;;;;;5014462;28;20470;-85
2021/08/18 00:52:45;;;;;;;8.70;7.63;;;16.50;99.90;;;;;;5026032;28;20442;-84
2021/08/18 00:55:15;;;;;;;9.90;8.20;;;16.50;99.90;;;;;;5031526;28;20470;-83
2021/08/18 00:57:42;;;;;;;9.23;7.70;;;16.50;99.90;;;;;;5036455;28;20465;-86
2021/08/18 01:00:14;;;;;;;8.43;7.70;;;16.50;99.90;;;;;;5029682;28;20554;-83
2021/08/18 01:02:44;;;;;;;10.47;7.10;;;16.50;99.90;;;;;;5026264;28;20423;-86
2021/08/18 01:05:16;;;;;;;7.70;6.90;;;16.50;99.90;;;;;;5035496;28;20536;-82
2021/08/18 01:07:45;;;;;;;7.17;6.40;;;16.50;99.90;;;;;;5032209;28;20439;-82
2021/08/18 01:10:17;;;;;;;7.73;6.77;;;16.50;99.90;;;;;;5025538;28;20479;-85
2021/08/18 01:12:44;;;;;;;6.30;5.77;;;16.50;99.90;;;;;;5010829;28;20442;-85
2021/08/18 01:15:15;;;;;;;6.83;6.23;;;16.50;99.90;;;;;;5013707;28;20470;-84
2021/08/18 01:17:44;;;;;;;6.83;6.20;;;16.50;99.90;;;;;;5011046;28;20501;-86
2021/08/18 01:20:15;;;;;;;7.70;6.40;;;16.50;99.90;;;;;;5004861;28;20465;-83
2021/08/18 01:22:43;;;;;;;6.37;5.50;;;16.50;99.90;;;;;;5009703;28;20462;-86
2021/08/18 01:25:11;;;;;;;7.50;6.33;;;16.50;99.90;;;;;;5025691;28;20474;-86
2021/08/18 01:27:47;;;;;;;6.50;5.90;;;16.50;99.90;;;;;;5029078;28;20450;-82
2021/08/18 01:30:15;;;;;;;6.40;5.83;;;16.50;99.90;;;;;;5028757;28;20474;-85
2021/08/18 01:32:46;;;;;;;7.63;5.60;;;16.40;99.90;;;;;;5015797;28;20481;-84
2021/08/18 01:35:21;;;;;;;6.17;5.57;;;16.50;99.90;;;;;;5017572;28;20474;-83
2021/08/18 01:37:49;;;;;;;6.60;6.00;;;16.50;99.90;;;;;;5021059;28;20448;-84
2021/08/18 01:40:16;;;;;;;6.80;6.00;;;16.50;99.90;;;;;;5018665;28;20462;-82
2021/08/18 01:42:43;;;;;;;6.70;6.00;;;16.50;99.90;;;;;;5029857;28;20520;-85
2021/08/18 01:45:11;;;;;;;6.20;5.60;;;16.50;99.90;;;;;;5022402;28;20470;-85
2021/08/18 01:47:38;;;;;;;6.77;6.07;;;16.50;99.90;;;;;;5016227;28;20459;-85
2021/08/18 01:50:06;;;;;;;5.47;4.97;;;16.60;99.90;;;;;;5025911;28;20550;-85
2021/08/18 01:52:37;;;;;;;7.40;6.50;;;16.50;99.90;;;;;;5028465;28;20450;-82
2021/08/18 01:55:06;;;;;;;6.47;5.80;;;16.50;99.90;;;;;;5005524;28;20461;-81
2021/08/18 01:57:34;;;;;;;6.13;5.63;;;16.50;99.90;;;;;;5019259;28;20607;-84
2021/08/18 02:00:03;;;;;;;6.40;5.77;;;16.50;99.90;;;;;;5019802;28;20461;-84
2021/08/18 02:02:30;;;;;;;6.63;6.03;;;16.50;99.90;;;;;;5012545;28;20470;-86
2021/08/18 02:04:57;;;;;;;6.53;5.90;;;16.50;99.90;;;;;;5015792;28;20481;-83
2021/08/18 02:07:24;;;;;;;12.00;6.60;;;16.50;99.90;;;;;;5017244;28;20455;-87
2021/08/18 02:09:51;;;;;;;6.90;6.30;;;16.60;99.90;;;;;;5020609;28;20500;-84
2021/08/18 02:12:18;;;;;;;6.93;6.27;;;16.60;99.90;;;;;;5010958;28;20454;-82
2021/08/18 02:14:45;;;;;;;7.17;6.50;;;16.60;99.90;;;;;;5025556;28;20550;-85
2021/08/18 02:17:11;;;;;;;8.30;7.30;;;16.60;99.90;;;;;;5025390;28;20538;-86
2021/08/18 02:19:41;;;;;;;7.00;6.40;;;16.60;99.90;;;;;;5015853;28;20478;-85
2021/08/18 02:22:08;;;;;;;6.90;6.30;;;16.60;99.90;;;;;;5029228;28;20459;-87
2021/08/18 02:24:35;;;;;;;8.50;7.70;;;16.60;99.90;;;;;;5026774;28;20514;-87
2021/08/18 02:27:05;;;;;;;7.90;7.10;;;16.60;99.90;;;;;;5031413;28;20458;-86
2021/08/18 02:29:32;;;;;;;6.70;6.10;;;16.60;99.90;;;;;;5028492;28;20462;-88
2021/08/18 02:31:59;;;;;;;7.60;6.87;;;16.60;99.90;;;;;;5031483;28;20513;-84
2021/08/18 02:34:26;;;;;;;7.67;6.87;;;16.60;99.90;;;;;;5003078;28;20475;-85
2021/08/18 02:36:53;;;;;;;7.60;6.77;;;16.70;99.90;;;;;;5013002;28;20541;-86
2021/08/18 02:39:19;;;;;;;7.17;6.47;;;16.70;99.90;;;;;;5029730;28;20442;-87
2021/08/18 02:41:46;;;;;;;8.27;7.57;;;16.60;99.90;;;;;;5035237;28;20517;-84
2021/08/18 02:44:16;;;;;;;7.77;7.07;;;16.70;99.90;;;;;;5012651;28;20494;-83
2021/08/18 02:46:43;;;;;;;8.67;7.83;;;16.70;99.90;;;;;;5015668;28;20531;-84
2021/08/18 02:49:09;;;;;;;9.37;7.43;;;16.70;99.90;;;;;;5015177;28;20446;-82
2021/08/18 02:51:36;;;;;;;7.73;7.03;;;16.70;99.90;;;;;;5015593;28;20487;-85
2021/08/18 02:54:03;;;;;;;8.57;7.67;;;16.70;99.90;;;;;;5029041;28;20462;-81
2021/08/18 02:56:30;;;;;;;7.30;6.40;;;16.70;99.90;;;;;;5027226;28;20455;-87
2021/08/18 02:58:57;;;;;;;8.40;7.60;;;16.70;99.90;;;;;;5015955;28;20466;-84
2021/08/18 03:01:23;;;;;;;8.03;7.33;;;16.70;99.90;;;;;;5007386;28;20458;-85
2021/08/18 03:03:50;;;;;;;8.07;7.37;;;16.70;99.90;;;;;;5014425;28;20483;-84
2021/08/18 03:06:17;;;;;;;7.80;7.17;;;16.70;99.90;;;;;;5021559;28;20476;-82
2021/08/18 03:08:44;;;;;;;7.27;6.67;;;16.60;99.90;;;;;;5028622;28;20467;-81
2021/08/18 03:11:11;;;;;;;7.80;7.20;;;16.60;99.90;;;;;;5020117;28;20474;-82
2021/08/18 03:13:37;;;;;;;7.80;7.10;;;16.60;99.90;;;;;;5022621;28;20490;-84
2021/08/18 03:16:04;;;;;;;7.37;6.67;;;16.60;99.90;;;;;;5015503;28;20450;-85
2021/08/18 03:18:34;;;;;;;7.40;6.80;;;16.70;99.90;;;;;;5020265;28;20446;-84
2021/08/18 03:21:02;;;;;;;7.77;7.07;;;16.70;99.90;;;;;;5005026;28;20467;-84
2021/08/18 03:23:29;;;;;;;7.90;7.20;;;16.70;99.90;;;;;;5007778;28;20532;-84
2021/08/18 03:25:56;;;;;;;7.90;7.20;;;16.70;99.90;;;;;;5011255;28;20462;-84
2021/08/18 03:28:25;;;;;;;8.47;7.73;;;16.70;99.90;;;;;;5017562;28;20502;-84
2021/08/18 03:30:54;;;;;;;7.73;7.13;;;16.70;99.90;;;;;;5011671;28;20471;-84
2021/08/18 03:33:25;;;;;;;8.03;7.33;;;16.70;99.90;;;;;;5011438;28;20474;-83
2021/08/18 03:35:51;;;;;;;9.27;6.70;;;16.70;99.90;;;;;;5013545;28;20498;-85
2021/08/18 03:38:18;;;;;;;8.03;7.23;;;16.70;99.90;;;;;;5005964;28;20468;-85
2021/08/18 03:40:52;;;;;;;8.30;7.50;;;16.70;99.90;;;;;;5005636;28;20514;-84
2021/08/18 03:43:20;;;;;;;7.67;7.03;;;16.80;99.90;;;;;;5009702;28;20459;-85
2021/08/18 03:45:50;;;;;;;7.77;7.07;;;16.80;99.90;;;;;;5013754;28;20514;-84
2021/08/18 03:48:17;;;;;;;8.53;7.73;;;16.70;99.90;;;;;;5009677;28;20533;-83
2021/08/18 03:50:44;;;;;;;8.73;7.83;;;16.80;99.90;;;;;;5009854;28;20486;-86
2021/08/18 03:53:11;;;;;;;7.07;6.57;;;16.80;99.90;;;;;;5009867;28;20454;-84
2021/08/18 03:55:38;;;;;;;8.97;8.07;;;16.80;99.90;;;;;;5019313;28;20841;-84
2021/08/18 03:58:07;;;;;;;9.13;8.33;;;16.70;99.90;;;;;;5016651;28;20493;-83
2021/08/18 04:00:35;;;;;;;9.40;8.50;;;16.70;99.90;;;;;;5019603;28;20509;-83
2021/08/18 04:03:02;;;;;;;7.40;6.80;;;16.70;99.90;;;;;;5019064;28;20474;-82
2021/08/18 04:05:29;;;;;;;8.33;7.63;;;16.70;99.90;;;;;;5018029;28;20462;-83
2021/08/18 04:07:56;;;;;;;8.33;7.60;;;16.80;99.90;;;;;;5016544;28;20462;-85
2021/08/18 04:10:23;;;;;;;7.80;7.10;;;16.70;99.90;;;;;;5014981;28;20463;-84
2021/08/18 04:12:58;;;;;;;8.23;7.43;;;16.70;99.90;;;;;;5020283;28;20483;-84
2021/08/18 04:15:37;;;;;;;8.40;7.53;;;16.70;99.90;;;;;;5014679;28;20504;-86
2021/08/18 04:18:05;;;;;;;10.93;7.87;;;16.70;99.90;;;;;;5015655;28;20446;-84
2021/08/18 04:20:32;;;;;;;7.60;6.90;;;16.70;99.90;;;;;;5013456;28;20473;-85
2021/08/18 04:22:59;;;;;;;7.43;6.83;;;16.70;99.90;;;;;;5011351;28;20474;-85
2021/08/18 04:25:27;;;;;;;7.00;6.40;;;16.70;99.90;;;;;;5010201;28;20470;-85
2021/08/18 04:27:54;;;;;;;7.10;6.43;;;16.70;99.90;;;;;;5012722;28;20468;-84
2021/08/18 04:30:21;;;;;;;7.57;6.83;;;16.80;99.90;;;;;;5009509;28;20514;-85
2021/08/18 04:32:49;;;;;;;6.90;6.33;;;16.70;99.90;;;;;;5010130;28;20481;-85
2021/08/18 04:35:18;;;;;;;6.53;5.97;;;16.80;99.90;;;;;;5018213;28;20496;-83
2021/08/18 04:37:45;;;;;;;7.10;6.50;;;16.80;99.90;;;;;;5008764;28;20459;-85
2021/08/18 04:40:14;;;;;;;6.60;6.00;;;16.90;99.90;;;;;;5012374;28;20480;-82
2021/08/18 04:42:43;;;;;;;7.13;6.53;;;16.80;99.90;;;;;;5005283;28;20469;-85
2021/08/18 04:45:12;;;;;;;6.23;5.73;;;16.90;99.90;;;;;;5012511;28;20478;-84
2021/08/18 04:47:39;;;;;;;5.87;5.37;;;16.90;99.90;;;;;;5010842;28;20466;-85
2021/08/18 04:50:08;;;;;;;6.07;5.40;;;16.90;99.90;;;;;;5008130;28;20952;-85
2021/08/18 04:52:36;;;;;;;6.70;6.10;;;16.90;99.90;;;;;;5012442;28;20489;-83
2021/08/18 04:55:06;;;;;;;6.03;5.53;;;16.90;99.90;;;;;;5008214;28;20497;-85
2021/08/18 04:57:33;;;;;;;5.40;5.00;;;16.90;99.90;;;;;;5007738;28;20816;-84
2021/08/18 05:00:02;;;;;;;5.40;5.00;;;16.80;99.90;;;;;;5013529;28;20945;-85
2021/08/18 05:02:29;;;;;;;6.33;5.67;;;16.90;99.90;;;;;;5008869;28;20517;-84
2021/08/18 05:04:58;;;;;;;7.97;5.20;;;16.90;99.90;;;;;;5012112;28;20915;-86
2021/08/18 05:07:25;;;;;;;5.67;5.07;;;16.90;99.90;;;;;;5009064;28;21018;-84
2021/08/18 05:09:54;;;;;;;5.63;5.13;;;16.90;99.90;;;;;;5003562;28;20448;-83
2021/08/18 05:12:21;;;;;;;5.37;4.97;;;16.90;99.90;;;;;;5012658;28;20488;-84
2021/08/18 05:14:48;;;;;;;6.47;5.87;;;16.90;99.90;;;;;;5004354;28;20482;-85
2021/08/18 05:17:15;;;;;;;6.57;5.83;;;16.90;99.90;;;;;;5013058;28;20466;-84
2021/08/18 05:19:42;;;;;;;6.60;6.00;;;16.90;99.90;;;;;;5017996;28;20450;-84
2021/08/18 05:22:09;;;;;;;6.80;6.30;;;16.90;99.90;;;;;;5000940;28;20542;-84
2021/08/18 05:24:36;;;;;;;8.20;7.30;;;16.90;99.90;;;;;;5026188;28;20479;-89
2021/08/18 05:27:03;;;;;;;8.70;7.80;;;16.90;99.90;;;;;;5028293;28;20446;-83
2021/08/18 05:29:30;;;;;;;8.30;7.50;;;16.90;99.90;;;;;;5014810;28;20470;-87
2021/08/18 05:31:56;;;;;;;9.23;6.80;;;16.90;99.90;;;;;;5005335;28;20761;-84
2021/08/18 05:34:26;;;;;;;12.50;8.30;;;16.80;99.90;;;;;;5013024;28;20470;-85
2021/08/18 05:36:54;;;;;;;8.57;7.77;;;16.90;99.90;;;;;;5010979;28;20479;-82
2021/08/18 05:39:21;;;;;;;9.57;8.10;;;16.90;99.90;;;;;;5016849;28;20482;-85
2021/08/18 05:41:48;;;;;;;7.87;7.17;;;16.90;99.90;;;;;;5016407;28;20995;-83
2021/08/18 05:44:15;;;;;;;10.37;7.77;;;17.00;99.90;;;;;;5012875;28;20497;-81
2021/08/18 05:46:42;;;;;;;10.20;9.10;;;17.00;99.90;;;;;;5009792;28;20474;-84
2021/08/18 05:49:09;;;;;;;10.20;9.20;;;17.00;99.90;;;;;;5019803;28;20952;-86
2021/08/18 05:51:36;;;;;;;9.73;8.83;;;17.10;99.90;;;;;;5016789;28;20478;-86
2021/08/18 05:54:04;;;;;;;10.97;9.97;;;17.10;99.90;;;;;;5008781;28;20467;-84
2021/08/18 05:56:34;;;;;;;13.30;11.40;;;17.10;99.90;;;;;;5015963;28;20506;-86
2021/08/18 05:59:03;;;;;;;12.27;10.90;;;17.10;99.90;;;;;;5014866;28;20830;-85
2021/08/18 06:01:30;;;;;;;12.90;11.23;;;17.10;99.90;;;;;;5012801;28;20469;-86
2021/08/18 06:03:58;;;;;;;12.23;11.03;;;17.10;99.90;;;;;;5017621;28;20478;-84
2021/08/18 06:06:26;;;;;;;18.73;12.20;;;17.10;99.90;;;;;;5013220;28;20454;-85
2021/08/18 06:08:53;;;;;;;13.73;12.00;;;17.10;99.90;;;;;;5008697;28;20872;-84
2021/08/18 06:11:43;;;;;;;15.97;12.07;;;17.10;99.90;;;;;;5010360;28;20509;-85
2021/08/18 06:14:10;;;;;;;14.70;13.17;;;17.10;99.90;;;;;;5008358;28;20474;-83
2021/08/18 06:16:38;;;;;;;14.23;12.73;;;17.10;99.90;;;;;;5019548;28;20457;-85
2021/08/18 06:19:05;;;;;;;13.13;11.83;;;17.20;99.90;;;;;;5022561;28;20445;-84
2021/08/18 06:21:33;;;;;;;16.67;13.80;;;17.20;99.90;;;;;;5015528;28;20504;-85
2021/08/18 06:24:12;;;;;;;15.67;13.07;;;17.20;99.90;;;;;;5018444;28;20484;-84
2021/08/18 06:26:43;;;;;;;14.17;12.67;;;17.30;99.90;;;;;;5008068;28;20457;-83
2021/08/18 06:29:11;;;;;;;15.20;13.60;;;17.20;99.90;;;;;;5007646;28;20470;-83
2021/08/18 06:31:40;;;;;;;14.00;12.70;;;17.30;99.90;;;;;;5019284;28;20580;-83
2021/08/18 06:34:10;;;;;;;15.40;13.80;;;17.30;99.90;;;;;;5012359;28;20561;-84
2021/08/18 06:36:37;;;;;;;14.37;12.87;;;17.40;99.90;;;;;;5018685;28;20458;-85
2021/08/18 06:39:06;;;;;;;20.30;14.63;;;17.40;99.90;;;;;;5024348;28;20509;-88
2021/08/18 06:41:35;;;;;;;15.33;13.73;;;17.40;99.90;;;;;;5027791;28;20990;-87
2021/08/18 06:44:04;;;;;;;14.20;12.70;;;17.40;99.90;;;;;;5013082;28;20529;-83
2021/08/18 06:46:37;;;;;;;15.20;13.60;;;17.50;99.90;;;;;;5018962;28;20471;-88
2021/08/18 06:49:07;;;;;;;13.10;11.90;;;17.50;99.90;;;;;;5031686;28;20469;-82
2021/08/18 06:51:51;;;;;;;13.90;12.50;;;17.60;99.90;;;;;;5030539;28;20573;-85
2021/08/18 06:54:19;;;;;;;13.33;11.97;;;17.60;99.90;;;;;;5024696;28;20528;-86
2021/08/18 06:56:46;;;;;;;14.37;12.03;;;17.50;99.90;;;;;;5027846;28;20458;-86
2021/08/18 06:59:17;;;;;;;11.97;10.77;;;17.60;99.90;;;;;;5022349;28;20454;-85
2021/08/18 07:01:45;;;;;;;10.03;9.00;;;17.60;99.90;;;;;;5017708;28;20517;-84
2021/08/18 07:04:15;;;;;;;12.30;11.00;;;17.60;99.90;;;;;;5015729;28;20919;-85
2021/08/18 07:06:44;;;;;;;10.67;9.57;;;17.60;99.90;;;;;;5016689;28;20459;-85
2021/08/18 07:09:11;;;;;;;8.33;7.53;;;17.70;99.90;;;;;;5008334;28;20459;-84
2021/08/18 07:11:39;;;;;;;8.70;7.80;;;17.70;99.90;;;;;;5015147;28;20494;-83
2021/08/18 07:14:05;;;;;;;8.20;7.50;;;17.80;99.90;;;;;;5012554;28;20481;-82
2021/08/18 07:16:34;;;;;;;9.30;7.27;;;17.80;99.90;;;;;;5012035;28;20829;-86
2021/08/18 07:19:03;;;;;;;8.53;7.73;;;17.70;99.90;;;;;;5011000;28;20521;-86
2021/08/18 07:21:30;;;;;;;8.63;7.80;;;17.80;99.90;;;;;;5019810;28;20541;-85
2021/08/18 07:23:57;;;;;;;8.20;7.40;;;17.80;99.90;;;;;;5014218;28;20482;-87
2021/08/18 07:26:25;;;;;;;8.80;8.10;;;17.80;99.90;;;;;;5014089;28;20463;-85
2021/08/18 07:28:56;;;;;;;10.47;8.80;;;17.80;99.90;;;;;;5020912;28;21001;-85
2021/08/18 07:31:24;;;;;;;10.10;8.40;;;17.80;99.90;;;;;;5014430;28;20457;-85
2021/08/18 07:33:51;;;;;;;9.63;8.60;;;17.80;99.90;;;;;;5040935;28;20493;-88
2021/08/18 07:36:18;;;;;;;9.67;8.77;;;17.80;99.90;;;;;;5019703;28;20464;-85
2021/08/18 07:38:45;;;;;;;10.73;8.53;;;17.90;99.90;;;;;;5018181;28;20458;-85
2021/08/18 07:41:12;;;;;;;10.60;9.50;;;18.00;99.90;;;;;;5006010;28;20489;-84
2021/08/18 07:43:39;;;;;;;11.30;10.27;;;18.00;99.90;;;;;;5011696;28;20470;-84
2021/08/18 07:46:05;;;;;;;12.20;11.00;;;18.10;99.90;;;;;;5017319;28;20442;-85
2021/08/18 07:48:32;;;;;;;11.90;10.63;;;18.10;99.90;;;;;;5012827;28;20825;-83
2021/08/18 07:50:59;;;;;;;11.20;10.10;;;18.10;99.90;;;;;;5000939;28;20539;-85
2021/08/18 07:53:26;;;;;;;11.03;9.93;;;18.10;99.90;;;;;;5013609;28;20482;-83
2021/08/18 07:55:53;;;;;;;11.17;10.03;;;18.10;99.90;;;;;;5019341;28;20451;-84
2021/08/18 07:58:20;;;;;;;12.00;10.73;;;18.10;99.90;;;;;;5013923;28;20479;-87
2021/08/18 08:00:47;;;;;;;10.03;9.10;;;18.10;99.90;;;;;;5013906;28;20442;-86
2021/08/18 08:03:14;;;;;;;11.60;9.80;;;18.10;99.90;;;;;;5018307;28;20477;-85
2021/08/18 08:05:41;;;;;;;10.70;9.13;;;18.10;99.90;;;;;;5011713;28;20990;-86
2021/08/18 08:08:08;;;;;;;10.50;9.40;;;18.20;99.90;;;;;;5012010;28;20447;-85
2021/08/18 08:10:35;;;;;;;9.90;8.90;;;18.10;99.90;;;;;;5001535;28;20984;-87
2021/08/18 08:13:04;;;;;;;10.07;8.27;;;18.10;99.90;;;;;;5004144;28;20480;-85
2021/08/18 08:15:31;;;;;;;11.10;8.73;;;18.20;99.90;;;;;;5009103;28;20547;-84
2021/08/18 08:18:01;;;;;;;10.53;9.60;;;18.20;99.90;;;;;;5006029;28;20540;-83
2021/08/18 08:20:28;;;;;;;10.00;9.00;;;18.30;99.90;;;;;;5031398;28;20445;-85
2021/08/18 08:22:55;;;;;;;10.33;8.50;;;18.40;99.90;;;;;;5011006;28;20462;-85
2021/08/18 08:25:22;;;;;;;15.23;9.00;;;18.30;99.90;;;;;;5012136;28;20545;-85
2021/08/18 08:27:49;;;;;;;8.80;8.00;;;18.40;99.90;;;;;;5011049;28;20977;-84
2021/08/18 08:30:16;;;;;;;8.70;7.80;;;18.40;99.90;;;;;;5013859;28;20454;-84
2021/08/18 08:32:43;;;;;;;7.33;6.63;;;18.40;99.90;;;;;;5015971;28;20470;-83
2021/08/18 08:35:10;;;;;;;9.90;7.33;;;18.40;99.90;;;;;;5015789;28;20476;-85
2021/08/18 08:37:37;;;;;;;7.70;6.87;;;18.40;99.90;;;;;;5010636;28;20576;-84
2021/08/18 08:40:05;;;;;;;7.40;6.70;;;18.30;99.90;;;;;;5000416;28;20447;-84
2021/08/18 08:42:32;;;;;;;7.10;6.40;;;18.30;99.90;;;;;;5001357;28;20451;-83
2021/08/18 08:45:01;;;;;;;8.43;6.87;;;18.30;99.90;;;;;;5002447;28;20558;-84
2021/08/18 08:47:28;;;;;;;8.23;7.40;;;18.40;99.90;;;;;;5017787;28;20465;-85
2021/08/18 08:49:56;;;;;;;6.10;5.50;;;18.60;99.90;;;;;;5024864;28;20456;-86
2021/08/18 08:52:23;;;;;;;7.83;7.13;;;18.50;99.90;;;;;;5014545;28;20483;-85
2021/08/18 08:54:50;;;;;;;7.00;5.50;;;18.50;99.90;;;;;;5028480;28;20469;-87
2021/08/18 08:57:16;;;;;;;6.23;4.67;;;18.50;99.90;;;;;;5035648;28;20461;-88
2021/08/18 08:59:43;;;;;;;4.73;4.33;;;18.50;99.90;;;;;;5033947;28;20457;-86
2021/08/18 09:02:12;;;;;;;4.43;4.03;;;18.40;99.90;;;;;;5025496;28;20447;-86
2021/08/18 09:04:43;;;;;;;4.13;3.73;;;18.40;99.90;;;;;;5028519;28;20459;-86
2021/08/18 09:07:15;;;;;;;4.17;3.77;;;18.40;99.90;;;;;;5029645;28;20458;-86
2021/08/18 09:09:55;;;;;;;4.10;3.20;;;18.40;99.90;;;;;;5023571;28;20505;-85
2021/08/18 09:12:34;;;;;;;3.80;3.50;;;18.30;99.90;;;;;;5028251;28;20489;-86
2021/08/18 09:15:15;;;;;;;3.33;2.80;;;18.30;99.90;;;;;;5022643;28;20859;-85
2021/08/18 09:17:43;;;;;;;4.17;2.50;;;18.20;99.90;;;;;;5023419;28;20450;-84
2021/08/18 09:20:17;;;;;;;3.13;2.80;;;18.10;99.90;;;;;;5014892;28;20523;-85
2021/08/18 09:22:48;;;;;;;2.70;2.50;;;18.00;99.90;;;;;;5006242;28;20463;-84
2021/08/18 09:25:29;;;;;;;2.30;2.20;;;18.10;99.90;;;;;;5015148;28;20491;-84
2021/08/18 09:28:04;;;;;;;2.10;2.00;;;18.00;99.90;;;;;;5009999;28;20600;-85
2021/08/18 09:30:32;;;;;;;2.73;2.47;;;18.10;99.90;;;;;;5016426;28;20487;-85
2021/08/18 09:33:06;;;;;;;2.63;2.20;;;18.30;99.90;;;;;;5007738;28;21004;-85
2021/08/18 09:35:33;;;;;;;3.57;2.30;;;18.40;99.90;;;;;;5009324;28;20435;-85
2021/08/18 09:38:02;;;;;;;2.10;1.97;;;18.40;99.90;;;;;;5006662;28;20451;-85
2021/08/18 09:40:35;;;;;;;2.20;2.07;;;18.40;99.90;;;;;;5009889;28;20451;-84
2021/08/18 09:43:30;;;;;;;2.07;1.97;;;18.30;99.90;;;;;;5004345;28;20950;-84
2021/08/18 09:45:59;;;;;;;1.77;1.67;;;18.30;99.90;;;;;;5010425;28;20501;-85
2021/08/18 09:48:33;;;;;;;1.80;1.70;;;18.30;99.90;;;;;;5012943;28;20470;-85
2021/08/18 09:51:05;;;;;;;2.20;2.10;;;18.40;99.90;;;;;;5010629;28;20461;-86
2021/08/18 09:53:41;;;;;;;2.20;2.00;;;18.50;99.90;;;;;;5017821;28;20517;-83
2021/08/18 09:56:17;;;;;;;2.93;2.73;;;18.50;99.90;;;;;;5013444;28;20455;-84
2021/08/18 09:58:55;;;;;;;2.43;2.20;;;18.60;99.90;;;;;;5010279;28;20468;-84
2021/08/18 10:01:22;;;;;;;2.80;2.27;;;18.60;99.90;;;;;;5013869;28;20442;-85
2021/08/18 10:03:54;;;;;;;2.00;1.90;;;18.70;99.90;;;;;;5012277;28;20963;-84
2021/08/18 10:06:21;;;;;;;1.83;1.73;;;18.90;99.90;;;;;;5012506;28;20462;-85
2021/08/18 10:08:54;;;;;;;2.00;1.80;;;18.90;99.90;;;;;;5008073;28;20566;-83
2021/08/18 10:11:23;;;;;;;2.30;2.10;;;18.90;99.90;;;;;;5016466;28;20454;-84
2021/08/18 10:13:51;;;;;;;1.80;1.70;;;19.00;99.90;;;;;;5017685;28;20554;-86
2021/08/18 10:16:18;;;;;;;2.60;2.17;;;19.00;99.90;;;;;;5014570;28;20454;-86
2021/08/18 10:18:47;;;;;;;3.10;2.90;;;19.20;99.90;;;;;;5018147;28;21036;-85
2021/08/18 10:21:22;;;;;;;2.53;2.33;;;19.30;99.90;;;;;;5011268;28;20461;-86
2021/08/18 10:23:59;;;;;;;3.00;2.80;;;19.50;99.90;;;;;;5009039;28;20486;-85
2021/08/18 10:26:32;;;;;;;3.83;3.53;;;20.00;99.90;;;;;;5012722;28;20462;-85
2021/08/18 10:29:01;;;;;;;4.23;3.70;;;20.60;99.90;;;;;;5025143;28;20458;-84
2021/08/18 10:31:46;;;;;;;4.60;4.20;;;21.80;99.90;;;;;;5046734;28;20520;-85
2021/08/18 10:34:22;;;;;;;2.93;2.70;;;22.00;99.90;;;;;;5003525;28;20561;-85
2021/08/18 10:36:51;;;;;;;3.43;3.13;;;21.50;99.90;;;;;;5002101;28;20443;-88
2021/08/18 10:39:17;;;;;;;3.60;2.90;;;21.20;99.90;;;;;;5015119;28;20447;-84
2021/08/18 10:42:03;;;;;;;3.23;3.00;;;20.80;99.90;;;;;;5015472;28;20466;-85
2021/08/18 10:44:47;;;;;;;3.03;2.83;;;20.20;99.90;;;;;;5022965;28;20470;-86
2021/08/18 10:47:25;;;;;;;2.63;2.43;;;19.80;99.90;;;;;;5031009;28;20505;-86
2021/08/18 10:49:56;;;;;;;2.80;2.40;;;19.60;99.90;;;;;;5025750;28;20450;-83
2021/08/18 10:52:29;;;;;;;2.70;2.50;;;19.30;99.90;;;;;;5024881;28;20458;-84
2021/08/18 10:55:11;;;;;;;2.43;2.33;;;19.20;99.90;;;;;;5017993;28;20478;-85
2021/08/18 10:57:44;;;;;;;2.47;2.27;;;19.20;99.90;;;;;;5024461;28;20488;-86
2021/08/18 11:00:22;;;;;;;2.83;2.60;;;19.20;99.90;;;;;;5046597;23;20523;-86
2021/08/18 11:02:54;;;;;;;3.00;2.80;;;19.30;99.90;;;;;;4996734;28;20464;-84
2021/08/18 11:05:51;;;;;;;3.27;2.43;;;19.30;99.90;;;;;;5000021;28;20467;-89
2021/08/18 11:08:36;;;;;;;2.30;2.20;;;19.30;99.90;;;;;;4993089;28;20452;-85
2021/08/18 11:11:06;;;;;;;3.27;2.97;;;19.40;99.90;;;;;;4995383;28;20475;-86
2021/08/18 11:13:52;;;;;;;3.57;3.27;;;19.40;99.90;;;;;;4995852;28;20538;-82
2021/08/18 11:16:34;;;;;;;3.30;3.00;;;19.40;99.90;;;;;;5006369;28;20514;-84
2021/08/18 11:19:09;;;;;;;6.57;3.70;;;19.40;99.90;;;;;;4996902;28;20451;-85
2021/08/18 11:21:39;;;;;;;4.07;3.77;;;19.50;99.90;;;;;;4995769;28;20474;-85
2021/08/18 11:24:11;;;;;;;4.20;3.80;;;19.60;99.90;;;;;;4988859;28;20484;-84
2021/08/18 11:26:41;;;;;;;4.40;4.00;;;19.60;99.90;;;;;;4998322;28;20462;-86
2021/08/18 11:29:18;;;;;;;4.20;3.90;;;19.40;99.90;;;;;;4994897;28;20460;-85
2021/08/18 11:31:53;;;;;;;4.80;4.00;;;19.30;99.90;;;;;;4999313;28;20857;-84
2021/08/18 11:34:26;;;;;;;3.53;3.33;;;19.30;99.90;;;;;;5017271;28;20553;-85
2021/08/18 11:37:03;;;;;;;4.17;3.77;;;19.40;99.90;;;;;;5022870;28;20450;-88
2021/08/18 11:39:34;;;;;;;5.73;5.10;;;19.70;99.90;;;;;;5023601;28;20595;-84
2021/08/18 11:42:19;;;;;;;4.43;4.10;;;19.80;99.90;;;;;;5028357;28;20527;-85
2021/08/18 11:44:58;;;;;;;5.00;4.50;;;19.60;99.90;;;;;;5017296;28;20498;-86
2021/08/18 11:47:28;;;;;;;4.73;4.23;;;19.60;99.90;;;;;;5010457;28;20457;-86
2021/08/18 11:49:55;;;;;;;5.17;3.97;;;19.90;99.90;;;;;;5009626;28;20454;-86
2021/08/18 11:52:23;;;;;;;4.97;4.57;;;20.10;99.90;;;;;;5014273;28;20462;-86
2021/08/18 11:54:59;;;;;;;5.00;4.60;;;20.40;99.90;;;;;;5017300;28;20465;-86
2021/08/18 11:57:26;;;;;;;5.67;4.60;;;20.40;99.90;;;;;;5010178;28;20458;-85
2021/08/18 11:59:55;;;;;;;5.30;4.80;;;20.40;99.90;;;;;;5006510;28;20486;-84
2021/08/18 12:02:28;;;;;;;4.67;4.30;;;20.40;99.90;;;;;;5015640;28;20455;-86
2021/08/18 12:04:56;;;;;;;5.63;5.13;;;20.40;99.90;;;;;;5015541;28;20490;-85
2021/08/18 12:07:27;;;;;;;6.20;5.70;;;20.30;99.90;;;;;;5006017;28;20472;-85
2021/08/18 12:10:15;;;;;;;5.60;4.90;;;20.20;99.90;;;;;;5021499;28;20445;-85
2021/08/18 12:12:42;;;;;;;5.30;4.90;;;20.40;99.90;;;;;;5027769;28;20477;-87
2021/08/18 12:15:15;;;;;;;5.90;5.40;;;20.30;99.90;;;;;;5020961;28;20500;-88
2021/08/18 12:17:44;;;;;;;5.63;5.23;;;20.20;99.90;;;;;;5038769;28;20477;-85
2021/08/18 12:20:33;;;;;;;5.90;5.33;;;20.20;99.90;;;;;;5022510;28;20450;-85
2021/08/18 12:23:01;;;;;;;6.47;5.87;;;20.20;99.90;;;;;;5022674;28;20501;-84
2021/08/18 12:25:30;;;;;;;6.10;5.70;;;20.10;99.90;;;;;;5029493;28;20924;-85
2021/08/18 12:28:20;;;;;;;7.20;6.60;;;20.10;99.90;;;;;;5013808;28;20900;-87
2021/08/18 12:31:00;;;;;;;6.53;5.93;;;20.10;99.90;;;;;;5022448;28;20537;-86
2021/08/18 12:33:28;;;;;;;6.60;5.90;;;20.20;99.90;;;;;;4673816;28;10000184;-85
2021/08/18 12:36:11;;;;;;;6.93;6.33;;;20.10;99.90;;;;;;5018378;28;20468;-85
2021/08/18 12:38:51;;;;;;;6.10;5.60;;;20.00;99.90;;;;;;5010125;28;20455;-84
2021/08/18 12:41:23;;;;;;;7.20;6.50;;;20.00;99.90;;;;;;5014408;28;20447;-82
2021/08/18 12:44:06;;;;;;;5.37;4.97;;;19.90;99.90;;;;;;5021417;28;20485;-84
2021/08/18 12:46:37;;;;;;;6.60;6.00;;;20.00;99.90;;;;;;5012767;28;20459;-85
2021/08/18 12:49:27;;;;;;;6.50;5.90;;;20.10;99.90;;;;;;5005177;28;20450;-85
2021/08/18 12:51:55;;;;;;;7.40;6.20;;;20.10;99.90;;;;;;5012006;28;20481;-85
2021/08/18 12:54:23;;;;;;;6.53;5.87;;;20.10;99.90;;;;;;5020137;28;20478;-84
2021/08/18 12:56:50;;;;;;;6.70;6.10;;;20.00;99.90;;;;;;5004204;28;20455;-84